sensor_id;sensor_type;location;lat;lon;timestamp;pressure;altitude;pressure_sealevel;temperature;humidity
19827;BME280;10074;52.018;4.726;2023-04-09T00:03:19;46247.31;;;-144.79;100.00
19827;BME280;10074;52.018;4.726;2023-04-09T00:08:21;46231.28;;;-144.79;100.00
19827;BME280;10074;52.018;4.726;2023-04-09T00:13:23;46237.31;;;-144.79;100.00
19827;BME280;10074;52.018;4.726;2023-04-09T00:18:23;46243.31;;;-144.79;100.00
19827;BME280;10074;52.018;4.726;2023-04-09T00:23:23;46247.31;;;-144.79;100.00
19827;BME280;10074;52.018;4.726;2023-04-09T00:28:23;46245.31;;;-144.79;100.00
19827;BME280;10074;52.018;4.726;2023-04-09T00:33:24;46239.31;;;-144.79;100.00
19827;BME280;10074;52.018;4.726;2023-04-09T00:38:25;46235.28;;;-144.79;100.00
19827;BME280;10074;52.018;4.726;2023-04-09T00:43:26;46233.28;;;-144.79;100.00
19827;BME280;10074;52.018;4.726;2023-04-09T00:48:26;46239.31;;;-144.79;100.00
19827;BME280;10074;52.018;4.726;2023-04-09T00:53:27;46235.28;;;-144.79;100.00
19827;BME280;10074;52.018;4.726;2023-04-09T00:58:28;46235.28;;;-144.79;100.00
19827;BME280;10074;52.018;4.726;2023-04-09T01:03:28;46243.31;;;-144.79;100.00
19827;BME280;10074;52.018;4.726;2023-04-09T01:08:54;46243.31;;;-144.79;100.00
19827;BME280;10074;52.018;4.726;2023-04-09T01:14:13;46239.31;;;-144.79;100.00
19827;BME280;10074;52.018;4.726;2023-04-09T01:24:59;46235.28;;;-144.79;100.00
19827;BME280;10074;52.018;4.726;2023-04-09T01:30:03;46235.28;;;-144.79;100.00
19827;BME280;10074;52.018;4.726;2023-04-09T01:35:06;46237.31;;;-144.79;100.00
19827;BME280;10074;52.018;4.726;2023-04-09T01:40:07;46237.31;;;-144.79;100.00
19827;BME280;10074;52.018;4.726;2023-04-09T01:45:09;46241.31;;;-144.79;100.00
19827;BME280;10074;52.018;4.726;2023-04-09T01:50:10;46231.28;;;-144.79;100.00
19827;BME280;10074;52.018;4.726;2023-04-09T01:55:10;46241.31;;;-144.79;100.00
19827;BME280;10074;52.018;4.726;2023-04-09T02:00:11;46243.31;;;-144.79;100.00
19827;BME280;10074;52.018;4.726;2023-04-09T02:05:14;46247.31;;;-144.79;100.00
19827;BME280;10074;52.018;4.726;2023-04-09T02:10:18;46235.28;;;-144.79;100.00
19827;BME280;10074;52.018;4.726;2023-04-09T02:15:20;46235.28;;;-144.79;100.00
19827;BME280;10074;52.018;4.726;2023-04-09T02:20:21;46235.28;;;-144.79;100.00
19827;BME280;10074;52.018;4.726;2023-04-09T02:25:22;46239.31;;;-144.79;100.00
19827;BME280;10074;52.018;4.726;2023-04-09T02:30:22;46235.28;;;-144.79;100.00
19827;BME280;10074;52.018;4.726;2023-04-09T02:35:22;46229.28;;;-144.79;100.00
19827;BME280;10074;52.018;4.726;2023-04-09T02:40:23;46233.28;;;-144.79;100.00
19827;BME280;10074;52.018;4.726;2023-04-09T02:45:23;46241.31;;;-144.79;100.00
19827;BME280;10074;52.018;4.726;2023-04-09T02:50:23;46235.28;;;-144.79;100.00
19827;BME280;10074;52.018;4.726;2023-04-09T02:55:24;46233.28;;;-144.79;100.00
19827;BME280;10074;52.018;4.726;2023-04-09T03:00:24;46235.28;;;-144.79;100.00
19827;BME280;10074;52.018;4.726;2023-04-09T03:05:24;46235.28;;;-144.79;100.00
19827;BME280;10074;52.018;4.726;2023-04-09T03:10:25;46239.31;;;-144.79;100.00
19827;BME280;10074;52.018;4.726;2023-04-09T03:15:25;46235.28;;;-144.79;100.00
19827;BME280;10074;52.018;4.726;2023-04-09T03:20:25;46237.31;;;-144.79;100.00
19827;BME280;10074;52.018;4.726;2023-04-09T03:25:26;46229.28;;;-144.79;100.00
19827;BME280;10074;52.018;4.726;2023-04-09T03:30:26;46235.28;;;-144.79;100.00
19827;BME280;10074;52.018;4.726;2023-04-09T03:35:26;46217.25;;;-144.79;100.00
19827;BME280;10074;52.018;4.726;2023-04-09T03:40:26;46227.28;;;-144.79;100.00
19827;BME280;10074;52.018;4.726;2023-04-09T03:45:28;46241.31;;;-144.79;100.00
19827;BME280;10074;52.018;4.726;2023-04-09T03:50:28;46241.31;;;-144.79;100.00
19827;BME280;10074;52.018;4.726;2023-04-09T03:55:28;46229.28;;;-144.79;100.00
19827;BME280;10074;52.018;4.726;2023-04-09T04:00:28;46227.28;;;-144.79;100.00
19827;BME280;10074;52.018;4.726;2023-04-09T04:05:29;46241.31;;;-144.79;100.00
19827;BME280;10074;52.018;4.726;2023-04-09T04:10:29;46225.28;;;-144.79;100.00
19827;BME280;10074;52.018;4.726;2023-04-09T04:15:29;46235.28;;;-144.79;100.00
19827;BME280;10074;52.018;4.726;2023-04-09T04:20:32;46235.28;;;-144.79;100.00
19827;BME280;10074;52.018;4.726;2023-04-09T04:25:32;46239.31;;;-144.79;100.00
19827;BME280;10074;52.018;4.726;2023-04-09T04:30:32;46237.31;;;-144.79;100.00
19827;BME280;10074;52.018;4.726;2023-04-09T04:35:32;46243.31;;;-144.79;100.00
19827;BME280;10074;52.018;4.726;2023-04-09T04:40:33;46237.31;;;-144.79;100.00
19827;BME280;10074;52.018;4.726;2023-04-09T04:45:34;46243.31;;;-144.79;100.00
19827;BME280;10074;52.018;4.726;2023-04-09T04:50:34;46241.31;;;-144.79;100.00
19827;BME280;10074;52.018;4.726;2023-04-09T04:55:35;46235.28;;;-144.79;100.00
19827;BME280;10074;52.018;4.726;2023-04-09T05:00:35;46239.31;;;-144.79;100.00
19827;BME280;10074;52.018;4.726;2023-04-09T05:05:36;46231.28;;;-144.79;100.00
19827;BME280;10074;52.018;4.726;2023-04-09T05:10:40;46245.31;;;-144.79;100.00
19827;BME280;10074;52.018;4.726;2023-04-09T05:15:40;46223.25;;;-144.79;100.00
19827;BME280;10074;52.018;4.726;2023-04-09T05:20:41;46233.28;;;-144.79;100.00
19827;BME280;10074;52.018;4.726;2023-04-09T05:25:41;46243.31;;;-144.79;100.00
19827;BME280;10074;52.018;4.726;2023-04-09T05:30:47;46235.28;;;-144.79;100.00
19827;BME280;10074;52.018;4.726;2023-04-09T05:35:47;46233.28;;;-144.79;100.00
19827;BME280;10074;52.018;4.726;2023-04-09T05:40:48;46233.28;;;-144.79;100.00
19827;BME280;10074;52.018;4.726;2023-04-09T05:45:48;46235.28;;;-144.79;100.00
19827;BME280;10074;52.018;4.726;2023-04-09T05:50:49;46239.31;;;-144.79;100.00
19827;BME280;10074;52.018;4.726;2023-04-09T05:55:51;46239.31;;;-144.79;100.00
19827;BME280;10074;52.018;4.726;2023-04-09T06:00:51;46243.31;;;-144.79;100.00
19827;BME280;10074;52.018;4.726;2023-04-09T06:05:52;46237.31;;;-144.79;100.00
19827;BME280;10074;52.018;4.726;2023-04-09T06:10:52;46233.28;;;-144.79;100.00
19827;BME280;10074;52.018;4.726;2023-04-09T06:15:52;46233.28;;;-144.79;100.00
19827;BME280;10074;52.018;4.726;2023-04-09T06:21:06;46243.31;;;-144.79;100.00
19827;BME280;10074;52.018;4.726;2023-04-09T06:26:06;46233.28;;;-144.79;100.00
19827;BME280;10074;52.018;4.726;2023-04-09T06:31:07;46235.28;;;-144.79;100.00
19827;BME280;10074;52.018;4.726;2023-04-09T06:36:07;46241.31;;;-144.79;100.00
19827;BME280;10074;52.018;4.726;2023-04-09T06:41:07;46237.31;;;-144.79;100.00
19827;BME280;10074;52.018;4.726;2023-04-09T06:46:08;46239.31;;;-144.79;100.00
19827;BME280;10074;52.018;4.726;2023-04-09T06:51:09;46239.31;;;-144.79;100.00
19827;BME280;10074;52.018;4.726;2023-04-09T06:56:10;46241.31;;;-144.79;100.00
19827;BME280;10074;52.018;4.726;2023-04-09T07:01:11;46241.31;;;-144.79;100.00
19827;BME280;10074;52.018;4.726;2023-04-09T07:06:11;46239.31;;;-144.79;100.00
19827;BME280;10074;52.018;4.726;2023-04-09T07:11:12;46227.28;;;-144.79;100.00
19827;BME280;10074;52.018;4.726;2023-04-09T07:16:12;46239.31;;;-144.79;100.00
19827;BME280;10074;52.018;4.726;2023-04-09T07:21:12;46241.31;;;-144.79;100.00
19827;BME280;10074;52.018;4.726;2023-04-09T07:26:13;46231.28;;;-144.79;100.00
19827;BME280;10074;52.018;4.726;2023-04-09T07:31:13;46235.28;;;-144.79;100.00
19827;BME280;10074;52.018;4.726;2023-04-09T07:36:13;46243.31;;;-144.79;100.00
19827;BME280;10074;52.018;4.726;2023-04-09T07:41:13;46237.31;;;-144.79;100.00
19827;BME280;10074;52.018;4.726;2023-04-09T07:46:20;46225.28;;;-144.79;100.00
19827;BME280;10074;52.018;4.726;2023-04-09T07:51:20;46237.31;;;-144.79;100.00
19827;BME280;10074;52.018;4.726;2023-04-09T07:56:21;46227.28;;;-144.79;100.00
19827;BME280;10074;52.018;4.726;2023-04-09T08:01:22;46247.31;;;-144.79;100.00
19827;BME280;10074;52.018;4.726;2023-04-09T08:06:23;46239.31;;;-144.79;100.00
19827;BME280;10074;52.018;4.726;2023-04-09T08:11:24;46235.28;;;-144.79;100.00
19827;BME280;10074;52.018;4.726;2023-04-09T08:16:25;46237.31;;;-144.79;100.00
19827;BME280;10074;52.018;4.726;2023-04-09T08:21:25;46233.28;;;-144.79;100.00
19827;BME280;10074;52.018;4.726;2023-04-09T08:26:25;46239.31;;;-144.79;100.00
19827;BME280;10074;52.018;4.726;2023-04-09T08:31:26;46237.31;;;-144.79;100.00
19827;BME280;10074;52.018;4.726;2023-04-09T08:36:26;46227.28;;;-144.79;100.00
19827;BME280;10074;52.018;4.726;2023-04-09T08:41:27;46231.28;;;-144.79;100.00
19827;BME280;10074;52.018;4.726;2023-04-09T08:46:28;46233.28;;;-144.79;100.00
19827;BME280;10074;52.018;4.726;2023-04-09T08:51:28;46223.25;;;-144.79;100.00
19827;BME280;10074;52.018;4.726;2023-04-09T08:56:29;46227.28;;;-144.79;100.00
19827;BME280;10074;52.018;4.726;2023-04-09T09:01:30;46229.28;;;-144.79;100.00
19827;BME280;10074;52.018;4.726;2023-04-09T09:06:33;46237.31;;;-144.79;100.00
19827;BME280;10074;52.018;4.726;2023-04-09T09:11:36;46237.31;;;-144.79;100.00
19827;BME280;10074;52.018;4.726;2023-04-09T09:16:41;46231.28;;;-144.79;100.00
19827;BME280;10074;52.018;4.726;2023-04-09T09:21:54;46243.31;;;-144.79;100.00
19827;BME280;10074;52.018;4.726;2023-04-09T09:26:55;46229.28;;;-144.79;100.00
19827;BME280;10074;52.018;4.726;2023-04-09T09:31:58;46239.31;;;-144.79;100.00
19827;BME280;10074;52.018;4.726;2023-04-09T09:36:59;46235.28;;;-144.79;100.00
19827;BME280;10074;52.018;4.726;2023-04-09T09:42:07;46231.28;;;-144.79;100.00
19827;BME280;10074;52.018;4.726;2023-04-09T09:47:08;46227.28;;;-144.79;100.00
19827;BME280;10074;52.018;4.726;2023-04-09T09:52:10;46233.28;;;-144.79;100.00
19827;BME280;10074;52.018;4.726;2023-04-09T09:57:10;46229.28;;;-144.79;100.00
19827;BME280;10074;52.018;4.726;2023-04-09T10:02:18;46225.28;;;-144.79;100.00
19827;BME280;10074;52.018;4.726;2023-04-09T10:07:19;46221.25;;;-144.79;100.00
19827;BME280;10074;52.018;4.726;2023-04-09T10:12:22;46231.28;;;-144.79;100.00
19827;BME280;10074;52.018;4.726;2023-04-09T10:17:23;46231.28;;;-144.79;100.00
19827;BME280;10074;52.018;4.726;2023-04-09T10:22:25;46239.31;;;-144.79;100.00
19827;BME280;10074;52.018;4.726;2023-04-09T10:27:26;46215.25;;;-144.79;100.00
19827;BME280;10074;52.018;4.726;2023-04-09T10:32:33;46221.25;;;-144.79;100.00
19827;BME280;10074;52.018;4.726;2023-04-09T10:37:35;46227.28;;;-144.79;100.00
19827;BME280;10074;52.018;4.726;2023-04-09T10:42:35;46207.22;;;-144.79;100.00
19827;BME280;10074;52.018;4.726;2023-04-09T10:47:41;46219.25;;;-144.79;100.00
19827;BME280;10074;52.018;4.726;2023-04-09T10:52:42;46225.28;;;-144.79;100.00
19827;BME280;10074;52.018;4.726;2023-04-09T10:57:43;46223.25;;;-144.79;100.00
19827;BME280;10074;52.018;4.726;2023-04-09T11:08:04;46223.25;;;-144.79;100.00
19827;BME280;10074;52.018;4.726;2023-04-09T11:13:05;46213.25;;;-144.79;100.00
19827;BME280;10074;52.018;4.726;2023-04-09T11:18:06;46213.25;;;-144.79;100.00
19827;BME280;10074;52.018;4.726;2023-04-09T11:23:09;46221.25;;;-144.79;100.00
19827;BME280;10074;52.018;4.726;2023-04-09T11:28:10;46223.25;;;-144.79;100.00
19827;BME280;10074;52.018;4.726;2023-04-09T11:33:13;46227.28;;;-144.79;100.00
19827;BME280;10074;52.018;4.726;2023-04-09T11:38:13;46211.22;;;-144.79;100.00
19827;BME280;10074;52.018;4.726;2023-04-09T11:43:13;46223.25;;;-144.79;100.00
19827;BME280;10074;52.018;4.726;2023-04-09T11:48:16;46215.25;;;-144.79;100.00
19827;BME280;10074;52.018;4.726;2023-04-09T11:53:21;46219.25;;;-144.79;100.00
19827;BME280;10074;52.018;4.726;2023-04-09T11:58:26;46227.28;;;-144.79;100.00
19827;BME280;10074;52.018;4.726;2023-04-09T12:03:28;46217.25;;;-144.79;100.00
19827;BME280;10074;52.018;4.726;2023-04-09T12:08:29;46221.25;;;-144.79;100.00
19827;BME280;10074;52.018;4.726;2023-04-09T12:13:33;46211.22;;;-144.79;100.00
19827;BME280;10074;52.018;4.726;2023-04-09T12:18:35;46219.25;;;-144.79;100.00
19827;BME280;10074;52.018;4.726;2023-04-09T12:23:37;46231.28;;;-144.79;100.00
19827;BME280;10074;52.018;4.726;2023-04-09T12:28:37;46219.25;;;-144.79;100.00
19827;BME280;10074;52.018;4.726;2023-04-09T12:33:37;46223.25;;;-144.79;100.00
19827;BME280;10074;52.018;4.726;2023-04-09T12:38:39;46219.25;;;-144.79;100.00
19827;BME280;10074;52.018;4.726;2023-04-09T12:43:39;46217.25;;;-144.79;100.00
19827;BME280;10074;52.018;4.726;2023-04-09T12:48:40;46217.25;;;-144.79;100.00
19827;BME280;10074;52.018;4.726;2023-04-09T12:53:40;46211.22;;;-144.79;100.00
19827;BME280;10074;52.018;4.726;2023-04-09T12:58:41;46219.25;;;-144.79;100.00
19827;BME280;10074;52.018;4.726;2023-04-09T13:03:41;46221.25;;;-144.79;100.00
19827;BME280;10074;52.018;4.726;2023-04-09T13:08:41;46221.25;;;-144.79;100.00
19827;BME280;10074;52.018;4.726;2023-04-09T13:13:42;46217.25;;;-144.79;100.00
19827;BME280;10074;52.018;4.726;2023-04-09T13:18:42;46215.25;;;-144.79;100.00
19827;BME280;10074;52.018;4.726;2023-04-09T13:23:42;46221.25;;;-144.79;100.00
19827;BME280;10074;52.018;4.726;2023-04-09T13:28:43;46219.25;;;-144.79;100.00
19827;BME280;10074;52.018;4.726;2023-04-09T13:33:43;46207.22;;;-144.79;100.00
19827;BME280;10074;52.018;4.726;2023-04-09T13:38:43;46217.25;;;-144.79;100.00
19827;BME280;10074;52.018;4.726;2023-04-09T13:43:44;46211.22;;;-144.79;100.00
19827;BME280;10074;52.018;4.726;2023-04-09T13:48:44;46219.25;;;-144.79;100.00
19827;BME280;10074;52.018;4.726;2023-04-09T13:53:44;46219.25;;;-144.79;100.00
19827;BME280;10074;52.018;4.726;2023-04-09T13:58:45;46219.25;;;-144.79;100.00
19827;BME280;10074;52.018;4.726;2023-04-09T14:03:46;46227.28;;;-144.79;100.00
19827;BME280;10074;52.018;4.726;2023-04-09T14:08:46;46217.25;;;-144.79;100.00
19827;BME280;10074;52.018;4.726;2023-04-09T14:13:47;46217.25;;;-144.79;100.00
19827;BME280;10074;52.018;4.726;2023-04-09T14:18:47;46225.28;;;-144.79;100.00
19827;BME280;10074;52.018;4.726;2023-04-09T14:23:47;46223.25;;;-144.79;100.00
19827;BME280;10074;52.018;4.726;2023-04-09T14:28:48;46223.25;;;-144.79;100.00
19827;BME280;10074;52.018;4.726;2023-04-09T14:33:48;46217.25;;;-144.79;100.00
19827;BME280;10074;52.018;4.726;2023-04-09T14:38:48;46207.22;;;-144.79;100.00
19827;BME280;10074;52.018;4.726;2023-04-09T14:43:49;46229.28;;;-144.79;100.00
19827;BME280;10074;52.018;4.726;2023-04-09T14:48:49;46219.25;;;-144.79;100.00
19827;BME280;10074;52.018;4.726;2023-04-09T14:53:49;46215.25;;;-144.79;100.00
19827;BME280;10074;52.018;4.726;2023-04-09T14:58:50;46211.22;;;-144.79;100.00
19827;BME280;10074;52.018;4.726;2023-04-09T15:03:51;46219.25;;;-144.79;100.00
19827;BME280;10074;52.018;4.726;2023-04-09T15:08:51;46231.28;;;-144.79;100.00
19827;BME280;10074;52.018;4.726;2023-04-09T15:13:52;46219.25;;;-144.79;100.00
19827;BME280;10074;52.018;4.726;2023-04-09T15:18:53;46227.28;;;-144.79;100.00
19827;BME280;10074;52.018;4.726;2023-04-09T15:23:54;46221.25;;;-144.79;100.00
19827;BME280;10074;52.018;4.726;2023-04-09T15:29:01;46219.25;;;-144.79;100.00
19827;BME280;10074;52.018;4.726;2023-04-09T15:34:03;46233.28;;;-144.79;100.00
19827;BME280;10074;52.018;4.726;2023-04-09T15:39:04;46211.22;;;-144.79;100.00
19827;BME280;10074;52.018;4.726;2023-04-09T15:44:04;46223.25;;;-144.79;100.00
19827;BME280;10074;52.018;4.726;2023-04-09T15:49:04;46229.28;;;-144.79;100.00
19827;BME280;10074;52.018;4.726;2023-04-09T15:54:05;46231.28;;;-144.79;100.00
19827;BME280;10074;52.018;4.726;2023-04-09T15:59:06;46223.25;;;-144.79;100.00
19827;BME280;10074;52.018;4.726;2023-04-09T16:04:07;46225.28;;;-144.79;100.00
19827;BME280;10074;52.018;4.726;2023-04-09T16:09:08;46215.25;;;-144.79;100.00
19827;BME280;10074;52.018;4.726;2023-04-09T16:14:08;46221.25;;;-144.79;100.00
19827;BME280;10074;52.018;4.726;2023-04-09T16:19:08;46221.25;;;-144.79;100.00
19827;BME280;10074;52.018;4.726;2023-04-09T16:24:10;46231.28;;;-144.79;100.00
19827;BME280;10074;52.018;4.726;2023-04-09T16:29:11;46221.25;;;-144.79;100.00
19827;BME280;10074;52.018;4.726;2023-04-09T16:34:12;46227.28;;;-144.79;100.00
19827;BME280;10074;52.018;4.726;2023-04-09T16:39:12;46231.28;;;-144.79;100.00
19827;BME280;10074;52.018;4.726;2023-04-09T16:44:14;46223.25;;;-144.79;100.00
19827;BME280;10074;52.018;4.726;2023-04-09T16:49:14;46223.25;;;-144.79;100.00
19827;BME280;10074;52.018;4.726;2023-04-09T16:54:15;46231.28;;;-144.79;100.00
19827;BME280;10074;52.018;4.726;2023-04-09T16:59:15;46231.28;;;-144.79;100.00
19827;BME280;10074;52.018;4.726;2023-04-09T17:04:17;46231.28;;;-144.79;100.00
19827;BME280;10074;52.018;4.726;2023-04-09T17:09:17;46227.28;;;-144.79;100.00
19827;BME280;10074;52.018;4.726;2023-04-09T17:14:18;46227.28;;;-144.79;100.00
19827;BME280;10074;52.018;4.726;2023-04-09T17:19:18;46239.31;;;-144.79;100.00
19827;BME280;10074;52.018;4.726;2023-04-09T17:24:18;46229.28;;;-144.79;100.00
19827;BME280;10074;52.018;4.726;2023-04-09T17:29:19;46227.28;;;-144.79;100.00
19827;BME280;10074;52.018;4.726;2023-04-09T17:34:19;46243.31;;;-144.79;100.00
19827;BME280;10074;52.018;4.726;2023-04-09T17:39:19;46229.28;;;-144.79;100.00
19827;BME280;10074;52.018;4.726;2023-04-09T17:44:21;46227.28;;;-144.79;100.00
19827;BME280;10074;52.018;4.726;2023-04-09T17:49:22;46233.28;;;-144.79;100.00
19827;BME280;10074;52.018;4.726;2023-04-09T17:54:22;46235.28;;;-144.79;100.00
19827;BME280;10074;52.018;4.726;2023-04-09T17:59:23;46243.31;;;-144.79;100.00
19827;BME280;10074;52.018;4.726;2023-04-09T18:04:23;46247.31;;;-144.79;100.00
19827;BME280;10074;52.018;4.726;2023-04-09T18:09:23;46235.28;;;-144.79;100.00
19827;BME280;10074;52.018;4.726;2023-04-09T18:14:24;46237.31;;;-144.79;100.00
19827;BME280;10074;52.018;4.726;2023-04-09T18:19:24;46231.28;;;-144.79;100.00
19827;BME280;10074;52.018;4.726;2023-04-09T18:24:24;46235.28;;;-144.79;100.00
19827;BME280;10074;52.018;4.726;2023-04-09T18:29:25;46243.31;;;-144.79;100.00
19827;BME280;10074;52.018;4.726;2023-04-09T18:34:27;46235.28;;;-144.79;100.00
19827;BME280;10074;52.018;4.726;2023-04-09T18:39:28;46233.28;;;-144.79;100.00
19827;BME280;10074;52.018;4.726;2023-04-09T18:44:29;46243.31;;;-144.79;100.00
19827;BME280;10074;52.018;4.726;2023-04-09T18:49:32;46251.34;;;-144.79;100.00
19827;BME280;10074;52.018;4.726;2023-04-09T18:54:33;46241.31;;;-144.79;100.00
19827;BME280;10074;52.018;4.726;2023-04-09T18:59:35;46239.31;;;-144.79;100.00
19827;BME280;10074;52.018;4.726;2023-04-09T19:04:35;46239.31;;;-144.79;100.00
19827;BME280;10074;52.018;4.726;2023-04-09T19:09:38;46233.28;;;-144.79;100.00
19827;BME280;10074;52.018;4.726;2023-04-09T19:14:40;46235.28;;;-144.79;100.00
19827;BME280;10074;52.018;4.726;2023-04-09T19:19:40;46243.31;;;-144.79;100.00
19827;BME280;10074;52.018;4.726;2023-04-09T19:24:44;46237.31;;;-144.79;100.00
19827;BME280;10074;52.018;4.726;2023-04-09T19:29:45;46235.28;;;-144.79;100.00
19827;BME280;10074;52.018;4.726;2023-04-09T19:34:46;46239.31;;;-144.79;100.00
19827;BME280;10074;52.018;4.726;2023-04-09T19:39:46;46247.31;;;-144.79;100.00
19827;BME280;10074;52.018;4.726;2023-04-09T19:44:46;46235.28;;;-144.79;100.00
19827;BME280;10074;52.018;4.726;2023-04-09T19:49:47;46235.28;;;-144.79;100.00
19827;BME280;10074;52.018;4.726;2023-04-09T19:54:52;46249.34;;;-144.79;100.00
19827;BME280;10074;52.018;4.726;2023-04-09T19:59:52;46241.31;;;-144.79;100.00
19827;BME280;10074;52.018;4.726;2023-04-09T20:04:53;46241.31;;;-144.79;100.00
19827;BME280;10074;52.018;4.726;2023-04-09T20:09:53;46239.31;;;-144.79;100.00
19827;BME280;10074;52.018;4.726;2023-04-09T20:14:58;46243.31;;;-144.79;100.00
19827;BME280;10074;52.018;4.726;2023-04-09T20:20:01;46243.31;;;-144.79;100.00
19827;BME280;10074;52.018;4.726;2023-04-09T20:25:01;46235.28;;;-144.79;100.00
19827;BME280;10074;52.018;4.726;2023-04-09T20:30:01;46247.31;;;-144.79;100.00
19827;BME280;10074;52.018;4.726;2023-04-09T20:35:03;46241.31;;;-144.79;100.00
19827;BME280;10074;52.018;4.726;2023-04-09T20:40:03;46233.28;;;-144.79;100.00
19827;BME280;10074;52.018;4.726;2023-04-09T20:45:05;46241.31;;;-144.79;100.00
19827;BME280;10074;52.018;4.726;2023-04-09T20:50:05;46235.28;;;-144.79;100.00
19827;BME280;10074;52.018;4.726;2023-04-09T20:55:06;46231.28;;;-144.79;100.00
19827;BME280;10074;52.018;4.726;2023-04-09T21:00:07;46245.31;;;-144.79;100.00
19827;BME280;10074;52.018;4.726;2023-04-09T21:05:07;46239.31;;;-144.79;100.00
19827;BME280;10074;52.018;4.726;2023-04-09T21:10:08;46239.31;;;-144.79;100.00
19827;BME280;10074;52.018;4.726;2023-04-09T21:15:09;46243.31;;;-144.79;100.00
19827;BME280;10074;52.018;4.726;2023-04-09T21:20:10;46243.31;;;-144.79;100.00
19827;BME280;10074;52.018;4.726;2023-04-09T21:25:10;46241.31;;;-144.79;100.00
19827;BME280;10074;52.018;4.726;2023-04-09T21:30:11;46245.31;;;-144.79;100.00
19827;BME280;10074;52.018;4.726;2023-04-09T21:35:11;46239.31;;;-144.79;100.00
19827;BME280;10074;52.018;4.726;2023-04-09T21:40:11;46237.31;;;-144.79;100.00
19827;BME280;10074;52.018;4.726;2023-04-09T21:45:12;46247.31;;;-144.79;100.00
19827;BME280;10074;52.018;4.726;2023-04-09T21:50:12;46251.34;;;-144.79;100.00
19827;BME280;10074;52.018;4.726;2023-04-09T21:55:12;46237.31;;;-144.79;100.00
19827;BME280;10074;52.018;4.726;2023-04-09T22:00:13;46249.34;;;-144.79;100.00
19827;BME280;10074;52.018;4.726;2023-04-09T22:05:15;46255.34;;;-144.79;100.00
19827;BME280;10074;52.018;4.726;2023-04-09T22:10:15;46247.31;;;-144.79;100.00
19827;BME280;10074;52.018;4.726;2023-04-09T22:15:16;46247.31;;;-144.79;100.00
19827;BME280;10074;52.018;4.726;2023-04-09T22:20:16;46243.31;;;-144.79;100.00
19827;BME280;10074;52.018;4.726;2023-04-09T22:25:16;46247.31;;;-144.79;100.00
19827;BME280;10074;52.018;4.726;2023-04-09T22:30:17;46247.31;;;-144.79;100.00
19827;BME280;10074;52.018;4.726;2023-04-09T22:35:17;46245.31;;;-144.79;100.00
19827;BME280;10074;52.018;4.726;2023-04-09T22:40:17;46243.31;;;-144.79;100.00
19827;BME280;10074;52.018;4.726;2023-04-09T22:45:18;46245.31;;;-144.79;100.00
19827;BME280;10074;52.018;4.726;2023-04-09T22:50:18;46241.31;;;-144.79;100.00
19827;BME280;10074;52.018;4.726;2023-04-09T22:55:19;46243.31;;;-144.79;100.00
19827;BME280;10074;52.018;4.726;2023-04-09T23:00:21;46251.34;;;-144.79;100.00
19827;BME280;10074;52.018;4.726;2023-04-09T23:05:21;46251.34;;;-144.79;100.00
19827;BME280;10074;52.018;4.726;2023-04-09T23:10:21;46255.34;;;-144.79;100.00
19827;BME280;10074;52.018;4.726;2023-04-09T23:15:22;46245.31;;;-144.79;100.00
19827;BME280;10074;52.018;4.726;2023-04-09T23:20:22;46239.31;;;-144.79;100.00
19827;BME280;10074;52.018;4.726;2023-04-09T23:25:26;46243.31;;;-144.79;100.00
19827;BME280;10074;52.018;4.726;2023-04-09T23:30:26;46237.31;;;-144.79;100.00
19827;BME280;10074;52.018;4.726;2023-04-09T23:35:26;46243.31;;;-144.79;100.00
19827;BME280;10074;52.018;4.726;2023-04-09T23:40:27;46237.31;;;-144.79;100.00
19827;BME280;10074;52.018;4.726;2023-04-09T23:45:27;46237.31;;;-144.79;100.00
19827;BME280;10074;52.018;4.726;2023-04-09T23:50:27;46245.31;;;-144.79;100.00
19827;BME280;10074;52.018;4.726;2023-04-09T23:55:28;46239.31;;;-144.79;100.00
